North Bay Airport
CYYB : now visible

Airfield :











YOU CAN JOIN US ON...

 
LOGIN :

Register | Disclaimer

   EN    FR    IT 

 









Legend :    VFR   Marginal VFR   IFR   Intensive IFR   Very Intensive IFR
Visi :
Ceiling :
>= 8 km
>= 3000ft
5 to 8 km
1000 to 3000 ft
1500m to 5 km
500 to 1000 ft
800 to 1500m
200 to 500 ft
< 800m
< 200 ft
Symbols :   Thunderstorms  Fog  Heavy snow  Heavy precipitations  Wind > 20 kt






- Airport Elevation : 1215 ft
- IATA code : YYB


CYYB - North Bay

CURRENT METAR :
  • 230700Z AUTO 03009KT 9SM CLR 15/12 A3002 RMK SLP167

EXPIRED METARs :
  • 230600Z AUTO 05004KT 9SM CLR 12/11 A3001 RMK SLP166
  • 230500Z AUTO VRB02KT 9SM CLR 13/11 A3002 RMK SLP167
  • 230400Z AUTO 00000KT 9SM CLR 13/12 A3002 RMK SLP168
  • 230300Z AUTO 00000KT 9SM CLR 16/12 A3001 RMK SLP166 DENSITY ALT 1500FT

TAF TAF CYYB
Valid from the 23 at 02:00 until the 23 at 14:00 UTC


230140Z 2302/2314 VRB03KT P6SM SCT050 BKN250
BECMG 2305/2307 04007KT RMK NXT FCST BY 230800Z
CZYZ FIR / North America



MET'MAP, your aeronautical weather chart ! - Copyright ORBIFLY December 2007 - Disclaimer

ORBIFLY MET'MAP TEAM :

Programming & Development : Alexandra Zaïnal
Original concept : Baudouin d'Aumeries
Technical & hardware support : Manuel Goepfert
Assistance : Marc-Olivier Méhu




SOURCES & CREDITS :

   NOAA       Earth
Advisory